createdAt,value
2019-05-14T00:01:06.350Z,100732.77
2019-05-14T00:03:36.155Z,100728.00
2019-05-14T00:06:05.959Z,100725.36
2019-05-14T00:08:36.219Z,100722.84
2019-05-14T00:11:05.406Z,100718.66
2019-05-14T00:13:34.995Z,100718.40
2019-05-14T00:16:04.703Z,100722.19
2019-05-14T00:18:35.846Z,100718.40
2019-05-14T00:21:06.080Z,100722.55
2019-05-14T00:23:37.247Z,100726.44
2019-05-14T00:26:08.092Z,100731.17
2019-05-14T00:28:42.240Z,100733.45
2019-05-14T00:31:12.688Z,100723.88
2019-05-14T00:33:42.409Z,100715.08
2019-05-14T00:36:12.790Z,100718.64
2019-05-14T00:38:42.514Z,100715.83
2019-05-14T00:41:12.757Z,100712.38
2019-05-14T00:43:43.501Z,100710.59
2019-05-14T00:46:13.793Z,100709.73
2019-05-14T00:48:46.899Z,100703.48
2019-05-14T00:51:16.261Z,100709.20
2019-05-14T00:53:45.747Z,100701.02
2019-05-14T00:56:15.209Z,100707.02
2019-05-14T00:58:44.685Z,100708.61
2019-05-14T01:01:14.980Z,100718.35
2019-05-14T01:03:44.553Z,100712.83
2019-05-14T01:06:14.757Z,100713.91
2019-05-14T01:08:44.240Z,100706.59
2019-05-14T01:11:14.409Z,100711.45
2019-05-14T01:13:46.584Z,100707.96
2019-05-14T01:16:16.029Z,100708.02
2019-05-14T01:18:45.236Z,100704.22
2019-05-14T01:21:18.003Z,100706.31
2019-05-14T01:23:48.765Z,100707.91
2019-05-14T01:26:23.443Z,100700.37
2019-05-14T01:28:53.285Z,100701.46
2019-05-14T01:31:26.426Z,100702.55
2019-05-14T01:33:57.986Z,100696.27
2019-05-14T01:36:31.871Z,100699.19
2019-05-14T01:39:03.421Z,100696.84
2019-05-14T01:41:34.790Z,100703.72
2019-05-14T01:44:04.352Z,100702.88
2019-05-14T01:46:33.790Z,100705.78
2019-05-14T01:49:05.880Z,100694.20
2019-05-14T01:51:38.066Z,100697.90
2019-05-14T01:54:08.125Z,100694.19
2019-05-14T01:56:38.364Z,100695.19
2019-05-14T01:59:08.115Z,100690.51
2019-05-14T02:01:38.354Z,100697.14
2019-05-14T02:04:11.633Z,100695.81
2019-05-14T02:06:45.280Z,100687.72
2019-05-14T02:09:21.585Z,100695.38
2019-05-14T02:11:51.969Z,100697.64
2019-05-14T02:14:22.332Z,100696.94
2019-05-14T02:16:51.506Z,100696.48
2019-05-14T02:19:22.163Z,100710.17
2019-05-14T02:21:56.366Z,100705.86
2019-05-14T02:24:25.800Z,100699.46
2019-05-14T02:26:55.998Z,100692.71
2019-05-14T02:29:26.185Z,100684.36
2019-05-14T02:31:55.660Z,100686.32
2019-05-14T02:34:29.931Z,100679.70
2019-05-14T02:37:00.343Z,100677.73
2019-05-14T02:39:33.338Z,100681.48
2019-05-14T02:42:04.901Z,100677.86
2019-05-14T02:44:35.156Z,100680.08
2019-05-14T02:47:05.421Z,100674.83
2019-05-14T02:49:39.674Z,100672.98
2019-05-14T02:52:10.465Z,100670.89
2019-05-14T02:54:40.851Z,100677.34
2019-05-14T02:57:11.073Z,100670.97
2019-05-14T02:59:41.725Z,100669.73
2019-05-14T03:02:14.057Z,100672.32
2019-05-14T03:04:45.353Z,100663.86
2019-05-14T03:07:19.402Z,100658.99
2019-05-14T03:09:50.319Z,100654.48
2019-05-14T03:12:20.990Z,100659.41
2019-05-14T03:14:50.751Z,100662.97
2019-05-14T03:17:20.979Z,100651.09
2019-05-14T03:19:50.928Z,100656.29
2019-05-14T03:22:27.363Z,100652.95
2019-05-14T03:24:53.909Z,100641.45
2019-05-14T03:27:23.096Z,100645.81
2019-05-14T03:29:58.607Z,100646.18
2019-05-14T03:32:33.012Z,100645.85
2019-05-14T03:35:04.086Z,100642.09
2019-05-14T03:37:31.250Z,100648.17
2019-05-14T03:40:01.249Z,100647.20
2019-05-14T03:42:31.563Z,100645.59
2019-05-14T03:45:01.765Z,100650.84
2019-05-14T03:47:33.585Z,100654.00
2019-05-14T03:50:03.639Z,100655.84
2019-05-14T03:52:33.882Z,100655.78
2019-05-14T03:55:04.691Z,100655.36
2019-05-14T03:57:35.227Z,100658.23
2019-05-14T04:00:05.327Z,100658.44
2019-05-14T04:02:34.732Z,100660.78
2019-05-14T04:05:04.793Z,100657.92
2019-05-14T04:07:39.130Z,100660.72
2019-05-14T04:10:11.945Z,100661.55
2019-05-14T04:12:48.903Z,100660.64
2019-05-14T04:15:19.274Z,100664.66
2019-05-14T04:17:50.514Z,100672.02
2019-05-14T04:20:19.999Z,100668.69
2019-05-14T04:22:53.484Z,100667.72
2019-05-14T04:25:29.501Z,100668.91
2019-05-14T04:28:02.906Z,100668.42
2019-05-14T04:30:40.117Z,100658.96
2019-05-14T04:33:11.179Z,100662.64
2019-05-14T04:35:41.210Z,100662.04
2019-05-14T04:38:11.271Z,100664.71
2019-05-14T04:40:41.537Z,100659.83
2019-05-14T04:43:11.974Z,100660.45
2019-05-14T04:45:43.101Z,100664.20
2019-05-14T04:48:31.402Z,100664.91
2019-05-14T04:50:49.997Z,100657.63
2019-05-14T04:53:19.994Z,100659.55
2019-05-14T04:55:52.181Z,100656.84
2019-05-14T04:58:31.698Z,100657.48
2019-05-14T05:01:01.108Z,100657.08
2019-05-14T05:03:31.931Z,100664.50
2019-05-14T05:06:09.613Z,100658.30
2019-05-14T05:08:39.496Z,100658.92
2019-05-14T05:11:13.010Z,100656.45
2019-05-14T05:13:43.245Z,100656.24
2019-05-14T05:16:13.132Z,100654.43
2019-05-14T05:18:49.331Z,100658.99
2019-05-14T05:21:21.432Z,100657.55
2019-05-14T05:23:50.649Z,100661.66
2019-05-14T05:26:20.862Z,100663.75
2019-05-14T05:29:02.945Z,100662.75
2019-05-14T05:31:21.830Z,100662.17
2019-05-14T05:33:52.097Z,100657.89
2019-05-14T05:36:21.599Z,100665.36
2019-05-14T05:38:50.834Z,100666.30
2019-05-14T05:41:20.902Z,100658.30
2019-05-14T05:43:50.206Z,100663.76
2019-05-14T05:46:19.731Z,100664.17
2019-05-14T05:48:49.763Z,100655.22
2019-05-14T05:51:19.294Z,100657.85
2019-05-14T05:53:49.480Z,100656.84
2019-05-14T05:56:19.501Z,100651.41
2019-05-14T05:58:49.224Z,100647.61
2019-05-14T06:01:19.628Z,100647.86
2019-05-14T06:03:49.611Z,100651.95
2019-05-14T06:06:19.491Z,100650.49
2019-05-14T06:08:49.490Z,100638.72
2019-05-14T06:11:19.423Z,100642.58
2019-05-14T06:13:49.601Z,100643.30
2019-05-14T06:16:19.366Z,100644.16
2019-05-14T06:18:48.857Z,100645.91
2019-05-14T06:21:19.087Z,100650.87
2019-05-14T06:23:49.154Z,100640.22
2019-05-14T06:26:19.348Z,100645.89
2019-05-14T06:28:49.679Z,100646.58
2019-05-14T06:31:19.792Z,100642.75
2019-05-14T06:33:49.547Z,100646.33
2019-05-14T06:36:20.201Z,100645.14
2019-05-14T06:38:49.762Z,100644.17
2019-05-14T06:41:19.513Z,100651.22
2019-05-14T06:43:48.991Z,100641.34
2019-05-14T06:46:19.683Z,100638.40
2019-05-14T06:48:49.874Z,100642.83
2019-05-14T06:51:23.301Z,100640.72
2019-05-14T06:53:52.464Z,100644.64
2019-05-14T06:56:22.993Z,100640.72
2019-05-14T06:58:52.170Z,100648.91
2019-05-14T07:01:21.706Z,100637.63
2019-05-14T07:03:53.229Z,100649.12
2019-05-14T07:06:22.767Z,100639.39
2019-05-14T07:08:52.926Z,100642.10
2019-05-14T07:11:22.255Z,100639.79
2019-05-14T07:13:51.692Z,100639.52
2019-05-14T07:16:20.898Z,100642.28
2019-05-14T07:18:53.923Z,100640.56
2019-05-14T07:21:21.294Z,100639.23
2019-05-14T07:23:50.485Z,100640.27
2019-05-14T07:26:19.755Z,100634.65
2019-05-14T07:28:49.213Z,100622.66
2019-05-14T07:31:18.829Z,100624.55
2019-05-14T07:33:49.356Z,100622.22
2019-05-14T07:36:19.175Z,100625.25
2019-05-14T07:38:49.523Z,100616.47
2019-05-14T07:41:19.189Z,100619.44
2019-05-14T07:43:48.764Z,100616.02
2019-05-14T07:46:19.129Z,100613.80
2019-05-14T07:49:03.916Z,100610.73
2019-05-14T07:51:20.987Z,100607.84
2019-05-14T07:53:50.574Z,100608.40
2019-05-14T07:56:19.777Z,100602.57
2019-05-14T07:58:49.379Z,100603.11
2019-05-14T08:01:19.261Z,100601.45
2019-05-14T08:03:49.197Z,100595.59
2019-05-14T08:06:19.296Z,100600.02
2019-05-14T08:08:49.420Z,100598.92
2019-05-14T08:11:19.254Z,100592.41
2019-05-14T08:13:49.372Z,100594.52
2019-05-14T08:16:18.990Z,100583.36
2019-05-14T08:18:48.980Z,100583.52
2019-05-14T08:21:19.562Z,100579.59
2019-05-14T08:23:52.201Z,100583.66
2019-05-14T08:26:21.658Z,100574.89
2019-05-14T08:28:50.832Z,100572.44
2019-05-14T08:31:20.038Z,100563.73
2019-05-14T08:33:49.336Z,100563.47
2019-05-14T08:36:18.731Z,100560.58
2019-05-14T08:38:50.149Z,100567.58
2019-05-14T08:41:20.184Z,100562.27
2019-05-14T08:43:49.765Z,100555.23
2019-05-14T08:46:19.488Z,100552.88
2019-05-14T08:48:49.571Z,100555.08
2019-05-14T08:51:19.079Z,100552.64
2019-05-14T08:53:50.422Z,100551.48
2019-05-14T08:56:19.772Z,100546.16
2019-05-14T08:58:50.031Z,100541.22
2019-05-14T09:01:19.831Z,100548.28
2019-05-14T09:03:49.602Z,100543.74
2019-05-14T09:06:19.331Z,100540.57
2019-05-14T09:08:49.525Z,100546.47
2019-05-14T09:11:25.641Z,100538.87
2019-05-14T09:13:59.232Z,100535.02
2019-05-14T09:16:39.528Z,100534.92
2019-05-14T09:18:59.234Z,100533.45
2019-05-14T09:21:29.700Z,100530.45
2019-05-14T09:23:59.347Z,100527.34
2019-05-14T09:26:28.806Z,100533.88
2019-05-14T09:28:58.689Z,100530.48
2019-05-14T09:31:34.824Z,100531.28
2019-05-14T09:34:04.905Z,100530.61
2019-05-14T09:36:39.620Z,100525.75
2019-05-14T09:39:12.397Z,100530.98
2019-05-14T09:41:48.247Z,100531.28
2019-05-14T09:44:18.741Z,100521.77
2019-05-14T09:46:55.759Z,100522.02
2019-05-14T09:49:28.061Z,100508.59
2019-05-14T09:52:00.042Z,100509.86
2019-05-14T09:54:30.714Z,100521.22
2019-05-14T09:57:01.834Z,100511.28
2019-05-14T09:59:34.793Z,100512.05
2019-05-14T10:02:05.128Z,100512.52
2019-05-14T10:04:34.313Z,100505.52
2019-05-14T10:07:04.948Z,100499.42
2019-05-14T10:09:34.501Z,100503.32
2019-05-14T10:12:03.668Z,100500.45
2019-05-14T10:14:32.882Z,100497.30
2019-05-14T10:17:03.542Z,100496.05
2019-05-14T10:19:32.726Z,100497.00
2019-05-14T10:22:01.909Z,100503.51
2019-05-14T10:24:31.099Z,100502.81
2019-05-14T10:27:00.280Z,100502.91
2019-05-14T10:29:29.472Z,100496.88
2019-05-14T10:31:59.331Z,100495.13
2019-05-14T10:34:28.865Z,100491.59
2019-05-14T10:36:59.239Z,100492.37
2019-05-14T10:39:29.952Z,100494.17
2019-05-14T10:41:59.476Z,100494.31
2019-05-14T10:44:29.541Z,100484.11
2019-05-14T10:47:00.088Z,100485.98
2019-05-14T10:49:30.396Z,100491.39
2019-05-14T10:52:04.380Z,100473.48
2019-05-14T10:54:40.276Z,100466.27
2019-05-14T10:57:11.723Z,100460.68
2019-05-14T10:59:41.993Z,100467.13
2019-05-14T11:02:12.159Z,100468.93
2019-05-14T11:04:48.501Z,100476.23
2019-05-14T11:07:18.685Z,100474.87
2019-05-14T11:09:50.952Z,100458.29
2019-05-14T11:12:29.611Z,100460.83
2019-05-14T11:15:00.027Z,100455.34
2019-05-14T11:17:29.442Z,100446.00
2019-05-14T11:19:59.454Z,100443.44
2019-05-14T11:22:29.024Z,100445.53
2019-05-14T11:24:59.177Z,100440.27
2019-05-14T11:27:34.675Z,100436.69
2019-05-14T11:30:04.640Z,100434.26
2019-05-14T11:32:34.635Z,100428.26
2019-05-14T11:35:04.472Z,100430.59
2019-05-14T11:37:41.105Z,100426.09
2019-05-14T11:40:11.489Z,100424.92
2019-05-14T11:42:59.410Z,100418.05
2019-05-14T11:45:30.916Z,100424.98
2019-05-14T11:48:00.892Z,100425.88
2019-05-14T11:50:34.870Z,100409.06
2019-05-14T11:53:09.607Z,100410.78
2019-05-14T11:55:50.729Z,100402.59
2019-05-14T11:58:41.532Z,100401.79
2019-05-14T12:01:12.898Z,100394.62
2019-05-14T12:03:44.638Z,100398.17
2019-05-14T12:06:18.644Z,100390.12
2019-05-14T12:08:51.235Z,100389.66
2019-05-14T12:11:21.869Z,100384.78
2019-05-14T12:13:54.005Z,100381.22
2019-05-14T12:16:24.511Z,100381.31
2019-05-14T12:18:55.223Z,100379.12
2019-05-14T12:21:28.874Z,100379.08
2019-05-14T12:24:06.146Z,100381.42
2019-05-14T12:26:38.676Z,100370.61
2019-05-14T12:29:12.369Z,100365.11
2019-05-14T12:31:43.054Z,100359.30
2019-05-14T12:34:13.100Z,100355.89
2019-05-14T12:36:54.239Z,100349.19
2019-05-14T12:39:23.701Z,100347.08
2019-05-14T12:41:54.031Z,100350.55
2019-05-14T12:44:24.449Z,100342.83
2019-05-14T12:46:54.458Z,100337.89
2019-05-14T12:49:25.380Z,100342.50
2019-05-14T12:51:55.142Z,100331.88
2019-05-14T12:54:24.896Z,100324.31
2019-05-14T12:56:55.224Z,100330.43
2019-05-14T12:59:30.861Z,100318.46
2019-05-14T13:02:02.345Z,100322.11
2019-05-14T13:04:32.932Z,100322.89
2019-05-14T13:07:03.921Z,100322.05
2019-05-14T13:09:38.518Z,100323.39
2019-05-14T13:12:11.384Z,100312.64
2019-05-14T13:14:48.935Z,100317.21
2019-05-14T13:17:29.072Z,100329.64
2019-05-14T13:20:02.001Z,100313.88
2019-05-14T13:22:44.738Z,100313.69
2019-05-14T13:25:10.701Z,100306.66
2019-05-14T13:27:44.379Z,100305.73
2019-05-14T13:30:23.632Z,100311.93
2019-05-14T13:32:59.230Z,100304.56
2019-05-14T13:35:34.913Z,100295.08
2019-05-14T13:38:06.132Z,100281.83
2019-05-14T13:40:39.233Z,100279.16
2019-05-14T13:43:14.370Z,100279.36
2019-05-14T13:45:49.509Z,100271.48
2019-05-14T13:48:22.757Z,100278.68
2019-05-14T13:50:55.445Z,100278.41
2019-05-14T13:53:29.533Z,100275.59
2019-05-14T13:55:59.721Z,100265.28
2019-05-14T13:58:29.495Z,100264.29
2019-05-14T14:00:59.670Z,100265.33
2019-05-14T14:03:30.080Z,100262.85
2019-05-14T14:05:59.677Z,100265.97
2019-05-14T14:08:30.120Z,100266.25
2019-05-14T14:11:02.818Z,100267.20
2019-05-14T14:13:31.530Z,100263.87
2019-05-14T14:16:01.117Z,100259.76
2019-05-14T14:18:33.921Z,100257.02
2019-05-14T14:21:09.109Z,100250.23
2019-05-14T14:23:39.582Z,100263.83
2019-05-14T14:26:12.324Z,100255.07
2019-05-14T14:28:43.467Z,100258.14
2019-05-14T14:31:13.562Z,100254.34
2019-05-14T14:33:44.697Z,100251.31
2019-05-14T14:36:15.168Z,100245.20
2019-05-14T14:38:44.352Z,100250.71
2019-05-14T14:41:19.026Z,100252.11
2019-05-14T14:43:53.134Z,100247.94
2019-05-14T14:46:19.958Z,100242.30
2019-05-14T14:48:52.665Z,100239.55
2019-05-14T14:51:22.200Z,100223.20
2019-05-14T14:53:59.660Z,100221.80
2019-05-14T14:56:22.600Z,100218.66
2019-05-14T14:58:54.609Z,100221.34
2019-05-14T15:01:24.159Z,100218.40
2019-05-14T15:03:53.748Z,100210.75
2019-05-14T15:06:23.548Z,100213.83
2019-05-14T15:08:53.165Z,100212.88
2019-05-14T15:11:23.187Z,100201.74
2019-05-14T15:13:58.780Z,100206.92
2019-05-14T15:16:34.089Z,100196.35
2019-05-14T15:19:03.582Z,100196.57
2019-05-14T15:21:32.608Z,100194.36
2019-05-14T15:24:11.947Z,100196.20
2019-05-14T15:26:34.850Z,100200.42
2019-05-14T15:29:04.073Z,100190.66
2019-05-14T15:31:33.871Z,100184.27
2019-05-14T15:34:03.025Z,100184.61
2019-05-14T15:36:32.530Z,100183.55
2019-05-14T15:39:02.537Z,100188.71
2019-05-14T15:41:32.340Z,100183.09
2019-05-14T15:44:01.520Z,100195.57
2019-05-14T15:46:31.058Z,100188.92
2019-05-14T15:49:00.993Z,100179.03
2019-05-14T15:51:30.405Z,100190.36
2019-05-14T15:54:15.605Z,100185.73
2019-05-14T15:56:33.031Z,100178.35
2019-05-14T15:59:03.870Z,100174.73
2019-05-14T16:01:33.433Z,100175.26
2019-05-14T16:04:02.617Z,100162.67
2019-05-14T16:06:33.026Z,100165.09
2019-05-14T16:09:02.211Z,100161.44
2019-05-14T16:11:31.682Z,100162.17
2019-05-14T16:14:00.861Z,100159.52
2019-05-14T16:16:30.061Z,100166.13
2019-05-14T16:18:59.210Z,100176.50
2019-05-14T16:21:29.070Z,100174.88
2019-05-14T16:23:59.057Z,100164.57
2019-05-14T16:26:29.246Z,100168.03
2019-05-14T16:28:59.244Z,100164.27
2019-05-14T16:31:37.261Z,100156.61
2019-05-14T16:34:04.637Z,100157.63
2019-05-14T16:36:33.809Z,100155.72
2019-05-14T16:39:04.970Z,100157.53
2019-05-14T16:41:34.760Z,100155.02
2019-05-14T16:44:04.175Z,100160.27
2019-05-14T16:46:33.336Z,100164.23
2019-05-14T16:49:02.524Z,100163.40
2019-05-14T16:51:31.696Z,100164.44
2019-05-14T16:54:00.894Z,100164.06
2019-05-14T16:56:31.275Z,100160.62
2019-05-14T16:59:03.234Z,100166.17
2019-05-14T17:01:34.056Z,100165.53
2019-05-14T17:04:09.283Z,100162.13
2019-05-14T17:06:41.263Z,100161.57
2019-05-14T17:09:13.230Z,100158.77
2019-05-14T17:11:43.759Z,100158.20
2019-05-14T17:14:19.327Z,100153.94
2019-05-14T17:16:49.227Z,100153.81
2019-05-14T17:19:19.807Z,100149.05
2019-05-14T17:21:55.451Z,100144.52
2019-05-14T17:24:35.004Z,100147.61
2019-05-14T17:27:05.357Z,100146.25
2019-05-14T17:29:35.141Z,100149.23
2019-05-14T17:32:05.383Z,100151.05
2019-05-14T17:34:34.953Z,100158.16
2019-05-14T17:37:04.800Z,100152.74
2019-05-14T17:39:34.001Z,100155.37
2019-05-14T17:42:03.167Z,100151.49
2019-05-14T17:44:32.757Z,100147.98
2019-05-14T17:47:08.600Z,100154.47
2019-05-14T17:49:39.108Z,100156.88
2019-05-14T17:52:10.789Z,100152.94
2019-05-14T17:54:42.079Z,100149.83
2019-05-14T17:57:12.168Z,100154.91
2019-05-14T17:59:42.422Z,100157.11
2019-05-14T18:02:11.726Z,100155.64
2019-05-14T18:04:40.967Z,100157.86
2019-05-14T18:07:11.568Z,100156.64
2019-05-14T18:09:41.766Z,100153.45
2019-05-14T18:12:11.411Z,100154.74
2019-05-14T18:14:42.494Z,100160.42
2019-05-14T18:17:14.736Z,100154.42
2019-05-14T18:19:43.979Z,100151.30
2019-05-14T18:22:13.638Z,100153.22
2019-05-14T18:24:48.700Z,100154.98
2019-05-14T18:27:19.535Z,100153.03
2019-05-14T18:29:49.805Z,100153.14
2019-05-14T18:32:19.155Z,100152.98
2019-05-14T18:34:48.829Z,100156.23
2019-05-14T18:37:18.567Z,100155.16
2019-05-14T18:39:48.457Z,100157.19
2019-05-14T18:42:19.043Z,100148.95
2019-05-14T18:44:49.759Z,100153.72
2019-05-14T18:47:20.136Z,100155.23
2019-05-14T18:49:49.786Z,100156.76
2019-05-14T18:52:20.465Z,100160.00
2019-05-14T18:54:49.848Z,100162.77
2019-05-14T18:57:19.050Z,100160.27
2019-05-14T18:59:49.283Z,100165.03
2019-05-14T19:02:21.326Z,100169.50
2019-05-14T19:04:50.894Z,100162.18
2019-05-14T19:07:20.423Z,100165.41
2019-05-14T19:09:49.885Z,100165.70
2019-05-14T19:12:20.026Z,100162.55
2019-05-14T19:14:49.777Z,100166.56
2019-05-14T19:17:18.998Z,100162.39
2019-05-14T19:19:48.503Z,100160.48
2019-05-14T19:22:17.700Z,100168.35
2019-05-14T19:24:49.080Z,100173.48
2019-05-14T19:27:17.768Z,100167.88
2019-05-14T19:29:48.402Z,100169.20
2019-05-14T19:32:19.121Z,100166.91
2019-05-14T19:34:49.230Z,100165.67
2019-05-14T19:37:19.183Z,100168.30
2019-05-14T19:39:52.844Z,100167.95
2019-05-14T19:42:22.104Z,100166.32
2019-05-14T19:44:51.270Z,100168.89
2019-05-14T19:47:20.828Z,100175.30
2019-05-14T19:49:50.084Z,100172.86
2019-05-14T19:52:21.081Z,100171.79
2019-05-14T19:54:51.068Z,100166.41
2019-05-14T19:57:20.264Z,100168.81
2019-05-14T19:59:58.110Z,100171.31
2019-05-14T20:02:29.382Z,100169.31
2019-05-14T20:04:59.787Z,100171.80
2019-05-14T20:07:31.998Z,100169.44
2019-05-14T20:10:12.512Z,100170.86
2019-05-14T20:12:41.969Z,100164.40
2019-05-14T20:15:11.542Z,100164.62
2019-05-14T20:17:43.616Z,100160.67
2019-05-14T20:20:13.998Z,100164.19
2019-05-14T20:22:44.292Z,100162.50
2019-05-14T20:25:13.582Z,100162.45
2019-05-14T20:27:43.956Z,100156.69
2019-05-14T20:30:14.390Z,100158.98
2019-05-14T20:32:44.478Z,100156.31
2019-05-14T20:35:29.989Z,100155.25
2019-05-14T20:37:49.340Z,100154.22
2019-05-14T20:40:18.442Z,100149.70
2019-05-14T20:42:58.999Z,100148.75
2019-05-14T20:45:29.007Z,100148.28
2019-05-14T20:47:58.699Z,100147.67
2019-05-14T20:50:29.052Z,100144.67
2019-05-14T20:52:59.198Z,100140.97
2019-05-14T20:55:38.929Z,100138.32
2019-05-14T20:58:11.265Z,100138.70
2019-05-14T21:00:41.360Z,100138.14
2019-05-14T21:03:11.974Z,100137.45
2019-05-14T21:05:42.492Z,100134.90
2019-05-14T21:08:13.525Z,100136.77
2019-05-14T21:10:43.053Z,100138.48
2019-05-14T21:13:15.414Z,100130.92
2019-05-14T21:15:48.168Z,100134.42
2019-05-14T21:18:35.412Z,100128.91
2019-05-14T21:21:10.821Z,100131.08
2019-05-14T21:23:39.118Z,100132.48
2019-05-14T21:26:10.356Z,100131.98
2019-05-14T21:28:40.420Z,100129.02
2019-05-14T21:31:10.506Z,100125.90
2019-05-14T21:33:39.827Z,100130.59
2019-05-14T21:36:12.286Z,100135.13
2019-05-14T21:38:41.133Z,100126.48
2019-05-14T21:41:11.990Z,100131.61
2019-05-14T21:43:41.386Z,100127.65
2019-05-14T21:46:10.895Z,100126.36
2019-05-14T21:48:40.896Z,100130.20
2019-05-14T21:51:10.081Z,100128.11
2019-05-14T21:53:41.316Z,100129.02
2019-05-14T21:56:10.464Z,100129.59
2019-05-14T21:58:39.656Z,100121.97
2019-05-14T22:01:10.547Z,100122.09
2019-05-14T22:03:40.313Z,100129.75
2019-05-14T22:06:10.290Z,100125.02
2019-05-14T22:08:39.770Z,100124.03
2019-05-14T22:11:11.081Z,100135.22
2019-05-14T22:13:40.469Z,100127.77
2019-05-14T22:16:09.651Z,100134.05
2019-05-14T22:18:42.705Z,100135.87
2019-05-14T22:21:12.219Z,100131.91
2019-05-14T22:23:43.072Z,100136.67
2019-05-14T22:26:12.641Z,100136.23
2019-05-14T22:28:42.462Z,100136.94
2019-05-14T22:31:17.119Z,100130.78
2019-05-14T22:33:48.090Z,100128.53
2019-05-14T22:36:21.317Z,100120.75
2019-05-14T22:39:03.968Z,100121.41
2019-05-14T22:41:34.104Z,100112.52
2019-05-14T22:44:04.119Z,100116.19
2019-05-14T22:46:34.112Z,100113.53
2019-05-14T22:49:03.277Z,100111.41
2019-05-14T22:51:33.272Z,100119.20
2019-05-14T22:54:02.908Z,100118.84
2019-05-14T22:56:32.391Z,100123.23
2019-05-14T22:59:02.386Z,100120.21
2019-05-14T23:01:33.979Z,100119.73
2019-05-14T23:04:03.251Z,100116.94
2019-05-14T23:06:33.728Z,100119.53
2019-05-14T23:09:03.130Z,100118.52
2019-05-14T23:11:32.866Z,100118.14
2019-05-14T23:14:06.963Z,100115.57
2019-05-14T23:16:41.161Z,100121.83
2019-05-14T23:19:11.581Z,100113.22
2019-05-14T23:21:41.053Z,100113.22
2019-05-14T23:24:10.752Z,100115.00
2019-05-14T23:26:43.563Z,100113.28
2019-05-14T23:29:14.483Z,100115.45
2019-05-14T23:31:44.486Z,100121.20
2019-05-14T23:34:15.066Z,100117.83
2019-05-14T23:36:45.052Z,100113.28
2019-05-14T23:39:16.365Z,100113.56
2019-05-14T23:41:48.773Z,100110.25
2019-05-14T23:44:20.288Z,100104.98
2019-05-14T23:46:58.640Z,100109.27
2019-05-14T23:49:28.683Z,100098.94
2019-05-14T23:51:58.247Z,100094.25
2019-05-14T23:54:29.759Z,100105.92
2019-05-14T23:57:02.983Z,100094.79
2019-05-14T23:59:35.584Z,100099.26
